This is the latest recevied weather packets stored in our database for station/object DC1NF-7. If no packets are shown the sender has not sent any weather packets the latest 10 day(s).
| Time | Temp. | Humidity | Pressure | Rain* | Wind** | Luminosity | Snow |
|---|---|---|---|---|---|---|---|
| 1777486525 | 12.78° C | 34% | 1025 hPa | 0 mm | - | 13 W/m² | - |
| 1777485921 | 13.33° C | 33% | 1024.9 hPa | 0 mm | - | 20 W/m² | - |
| 1777485377 | 13.89° C | 33% | 1024.6 hPa | 0 mm | - | 29 W/m² | - |
| 1777484770 | 13.89° C | 33% | 1024.4 hPa | 0 mm | - | 39 W/m² | - |
| 1777484166 | 14.44° C | 32% | 1024.3 hPa | 0 mm | - | 50 W/m² | - |
| 1777483566 | 15° C | 32% | 1024.2 hPa | 0 mm | - | 60 W/m² | - |
| 1777482963 | 15° C | 32% | 1024.1 hPa | 0 mm | - | 72 W/m² | - |
| 1777482356 | 15.56° C | 32% | 1024 hPa | 0 mm | - | 96 W/m² | - |
| 1777481752 | 15.56° C | 32% | 1023.9 hPa | 0 mm | - | 121 W/m² | - |
| 1777481147 | 16.11° C | 32% | 1023.9 hPa | 0 mm | - | 138 W/m² | - |
| 1777480544 | 16.11° C | 32% | 1023.8 hPa | 0 mm | - | 149 W/m² | - |
| 1777479944 | 16.67° C | 33% | 1023.6 hPa | 0 mm | - | 163 W/m² | - |
| 1777479338 | 16.67° C | 32% | 1023.6 hPa | 0 mm | - | 178 W/m² | - |
| 1777478735 | 16.67° C | 32% | 1023.5 hPa | 0 mm | - | 197 W/m² | - |
| 1777478132 | 17.22° C | 31% | 1023.5 hPa | 0 mm | - | 220 W/m² | - |
| 1777477531 | 17.22° C | 31% | 1023.5 hPa | 0 mm | - | 247 W/m² | - |
| 1777476924 | 17.78° C | 31% | 1023.4 hPa | 0 mm | - | 274 W/m² | - |
| 1777476320 | 17.78° C | 29% | 1023.4 hPa | 0 mm | - | 300 W/m² | - |
| 1777475716 | 18.33° C | 29% | 1023.4 hPa | 0 mm | - | 327 W/m² | - |
| 1777475176 | 18.33° C | 27% | 1023.4 hPa | 0 mm | - | 358 W/m² | - |
| 1777474570 | 18.89° C | 26% | 1023.4 hPa | 0 mm | - | 386 W/m² | - |
| 1777473966 | 18.33° C | 25% | 1023.5 hPa | 0 mm | - | 423 W/m² | - |
| 1777473365 | 18.33° C | 26% | 1023.7 hPa | 0 mm | - | 461 W/m² | - |
| 1777472758 | 18.89° C | 25% | 1023.5 hPa | 0 mm | - | 500 W/m² | - |
| 1777472154 | 17.78° C | 25% | 1023.6 hPa | 0 mm | - | 538 W/m² | - |
* Rain latest hour (hover to see other rain measurements)
** Current wind speed in m/s (hover to see current wind gust speed)